Three Springs, Pennsylvania
Current Conditions -  °F | °C
As of 1:53 PM on Friday 24 Oct 2014 (Local Time) from KAOO Reporting Station
Clear Clear  
Wind Chill: 58°   Ceiling: Unl
Heat Index: 58°   Visibility: 10mi
Dew Point: 37°   Wind: 13mph
Humidity: 46%   Direction: 320°NW
Pressure: 29.97"   Gusts: NA
Location:  40.2°N, 77.98°W
Report Text: KAOO 241753Z AUTO 32011KT 10SM CLR 14/03 A2997 RMK AO2 SLP149 T01440028 10150 20072 58019
Loading
Personal Weather Stations






























Interactive Weather Map
Tropical Storm Tracking
New forecast layout! Learn more

10-Day Weather Forecast

Advertisements
Track Severe Weather on mobile